Cicero, Indiana
Current Conditions -  °F | °C
As of 6:55 PM on Sunday 23 Nov 2014 (Local Time) from KTYQ Reporting Station
Moderate Rain Moderate Rain  
Wind Chill: 53°   Ceiling: 800
Heat Index: 53°   Visibility: 10mi
Dew Point: 50°   Wind: 14mph
Humidity: 89%   Direction: 150°SSE
Pressure: 29.4"   Gusts: NA
Location:  40.12°N, 86.01°W
Report Text: KTYQ 232355Z AUTO 15012KT 10SM RA OVC008 12/10 A2940 RMK AO2 P0010 60050 T01180100 10118 20106
Loading
Personal Weather Stations






























Interactive Weather Map New forecast layout! Learn more

10-Day Weather Forecast

Advertisements
Track Severe Weather on mobile